This is the latest recevied weather packets stored in our database for station/object WX4FLY-3. If no packets are shown the sender has not sent any weather packets the latest 1 day(s).
| Time | Temp. | Humidity | Pressure | Rain* | Wind** | Luminosity | Snow |
|---|---|---|---|---|---|---|---|
| 1836274842 | 22.22° C | 92% | 1018.2 hPa | 0 mm | 2.24 m/s, 80° | - | - |
| 1836274422 | 22.22° C | 92% | 1018.1 hPa | 0 mm | 2.68 m/s, 100° | - | - |
| 1836274260 | 22.22° C | 89% | 1018 hPa | 0 mm | 2.68 m/s, 102° | - | - |
| 1836274251 | 22.22° C | 92% | 1018.2 hPa | 0 mm | 2.24 m/s, 80° | - | - |
| 1836274236 | 22.22° C | 92% | 1018.1 hPa | 0 mm | 2.68 m/s, 100° | - | - |
| 1836274125 | 22.22° C | 88% | 1018 hPa | 0 mm | 2.24 m/s, 87° | - | - |
| 1778047134 | 19.44° C | 83% | 1017.7 hPa | 0 mm | 4.02 m/s, 202° | - | - |
| 1778046533 | 19.44° C | 83% | 1017.6 hPa | 0 mm | 4.47 m/s, 183° | - | - |
| 1778045933 | 19.44° C | 82% | 1017.8 hPa | 0 mm | 4.92 m/s, 190° | - | - |
| 1778045332 | 19.44° C | 81% | 1017.9 hPa | 0 mm | 4.92 m/s, 173° | - | - |
| 1778044731 | 19.44° C | 81% | 1018 hPa | 0 mm | 4.92 m/s, 192° | - | - |
| 1778044131 | 19.44° C | 81% | 1018.1 hPa | 0 mm | 4.92 m/s, 198° | - | - |
| 1778043530 | 19.44° C | 81% | 1018.1 hPa | 0 mm | 5.36 m/s, 178° | - | - |
| 1778042930 | 19.44° C | 80% | 1018.2 hPa | 0 mm | 5.36 m/s, 210° | - | - |
| 1778042329 | 19.44° C | 79% | 1018.3 hPa | 0 mm | 5.81 m/s, 180° | - | - |
| 1778041728 | 19.44° C | 80% | 1018.4 hPa | 0 mm | 5.81 m/s, 160° | - | - |
| 1778041128 | 19.44° C | 80% | 1018.5 hPa | 0 mm | 5.81 m/s, 204° | - | - |
| 1778040527 | 19.44° C | 80% | 1018.6 hPa | 0 mm | 5.81 m/s, 180° | - | - |
| 1778039927 | 20° C | 79% | 1018.8 hPa | 0 mm | 5.81 m/s, 197° | - | - |
| 1778039326 | 20° C | 79% | 1018.8 hPa | 0 mm | 6.26 m/s, 216° | - | - |
| 1778038726 | 19.44° C | 79% | 1018.7 hPa | 0 mm | 5.81 m/s, 178° | - | - |
| 1778038125 | 19.44° C | 80% | 1018.8 hPa | 0 mm | 5.81 m/s, 203° | - | - |
| 1778037524 | 19.44° C | 81% | 1018.9 hPa | 0 mm | 5.36 m/s, 156° | - | - |
| 1778036924 | 19.44° C | 82% | 1019.1 hPa | 0 mm | 5.36 m/s, 182° | - | - |
| 1778036323 | 19.44° C | 82% | 1019 hPa | 0 mm | 5.81 m/s, 179° | - | - |
* Rain latest hour (hover to see other rain measurements)
** Current wind speed in m/s (hover to see current wind gust speed)